Portada
METAR-TAF:

METAR-TAF

Aeroports :

El Papalon

San Miguel, El Salvador

latitud: 13-27N, longitud: 088-07W, altitud: 80 m

Observació

L'informe es va fer fa 1 hora i 12 minuts, a les 17:50 UTC
Vent calma
Temperatura 33°C
Humitat 63%
Pressió 1010 hPa
Visibilitat 10 km o més
Escasses núvols a una alçada de 3000 ft
Escasses núvols a una alçada de 30000 ft

METAR: MSSM 291750Z 00000KT 9999 FEW030 33/25 Q1010 A2983 FEW300

Hora: 13:02 (19:02 UTC)


TAF: manca

Observacions i pronòstics meteorològics de més de 4000 aeroports (METAR i TAF).

Les estacions disponibles són els punts grocs i vermells al mapa.

Posi el ratolí al punt desitjat per veure el nom de l'estació.

Feu clic per veure les observacions i els pronòstics meteorològics.

Per canviar el mapa: feu clic els botons verds amb una creu de color negre per apropar; al botó verd amb un guió per allunyar la imatge; o en les fletxes verdes per a mapes adjacents.


METAR-TAF: